Moran, Minnesota
Current Conditions -  °F | °C
As of 3:33 PM on Thursday 23 Oct 2014 (Local Time) from KSAZ Reporting Station
Clear Clear  
Wind Chill: 19°   Ceiling: Unl
Heat Index: 19°   Visibility: 10mi
Dew Point:   Wind: 8mph
Humidity: 32%   Direction: 240°WSW
Pressure: 29.9"   Gusts: 20mph
Location:  46.4416°N, 94.6389°W
Report Text: KSAZ 232033Z AUTO 24007G17KT 10SM CLR 19/02 A2990 RMK AO2
Loading
Personal Weather Stations






























Interactive Weather Map
Tropical Storm Tracking
New forecast layout! Learn more

10-Day Weather Forecast

Advertisements
Track Severe Weather on mobile